Time;durP1;ratioP1;P1;durP2;ratioP2;P2;SDS_P1;SDS_P2;PMS_P1;PMS_P2;Temp;Humidity;BMP_temperature;BMP_pressure;BME280_temperature;BME280_humidity;BME280_pressure;Samples;Min_cycle;Max_cycle;Signal;HPM_P1;HPM_P2
2024/01/06 00:02:01;;;;;;;;;;;;;;;11.08;60.26;95725.72;4178360;28;5801;-67
2024/01/06 00:04:06;;;;;;;;;;;;;;;11.08;60.44;95723.88;4185974;28;5861;-67
2024/01/06 00:06:11;;;;;;;;;;;;;;;11.08;60.55;95723.09;4185998;28;5767;-66
2024/01/06 00:08:14;;;;;;;;;;;;;;;11.11;60.30;95732.44;4185927;28;5551;-68
2024/01/06 00:10:18;;;;;;;;;;;;;;;11.11;60.50;95727.16;4185930;28;5758;-68
2024/01/06 00:12:21;;;;;;;;;;;;;;;11.08;60.13;95737.13;4186117;28;5710;-67
2024/01/06 00:14:24;;;;;;;;;;;;;;;11.05;60.17;95729.63;4186149;28;5715;-67
2024/01/06 00:16:26;;;;;;;;;;;;;;;11.03;60.13;95725.59;4186054;28;5566;-68
2024/01/06 00:18:31;;;;;;;;;;;;;;;11.01;60.28;95731.13;4185355;28;5644;-68
2024/01/06 00:20:36;;;;;;;;;;;;;;;10.99;60.54;95719.94;4184754;28;5740;-68
2024/01/06 00:22:38;;;;;;;;;;;;;;;11.00;60.23;95720.75;4185693;28;5797;-68
2024/01/06 00:24:41;;;;;;;;;;;;;;;11.00;60.13;95724.22;4185886;28;5547;-68
2024/01/06 00:26:46;;;;;;;;;;;;;;;10.98;60.42;95733.38;4185751;28;5715;-68
2024/01/06 00:28:49;;;;;;;;;;;;;;;10.98;60.50;95728.88;4185601;28;6621;-68
2024/01/06 00:30:53;;;;;;;;;;;;;;;10.98;60.33;95731.53;4185726;28;5847;-68
2024/01/06 00:32:56;;;;;;;;;;;;;;;10.96;60.62;95725.66;4185755;28;5554;-67
2024/01/06 00:34:59;;;;;;;;;;;;;;;10.94;60.69;95722.44;4185662;28;5870;-68
2024/01/06 00:37:04;;;;;;;;;;;;;;;10.96;60.48;95724.84;4177854;28;5638;-67
2024/01/06 00:39:08;;;;;;;;;;;;;;;10.97;60.77;95729.13;4185301;28;6384;-68
2024/01/06 00:41:10;;;;;;;;;;;;;;;11.00;60.70;95737.44;4185522;28;5676;-67
2024/01/06 00:43:13;;;;;;;;;;;;;;;10.98;60.45;95731.53;4185429;28;6557;-67
2024/01/06 00:45:17;;;;;;;;;;;;;;;10.97;60.70;95732.56;4183209;28;5217;-67
2024/01/06 00:47:22;;;;;;;;;;;;;;;10.97;60.88;95737.84;4185412;28;5741;-67
2024/01/06 00:49:25;;;;;;;;;;;;;;;10.97;60.70;95737.84;4185617;28;5835;-67
2024/01/06 00:51:27;;;;;;;;;;;;;;;10.96;60.66;95740.72;4185588;28;5782;-68
2024/01/06 00:53:32;;;;;;;;;;;;;;;10.95;61.03;95739.91;4185511;28;5099;-67
2024/01/06 00:55:35;;;;;;;;;;;;;;;10.96;60.98;95736.25;4184461;28;7737;-66
2024/01/06 00:57:38;;;;;;;;;;;;;;;10.94;60.84;95730.38;4185709;28;6335;-67
2024/01/06 00:59:41;;;;;;;;;;;;;;;10.91;60.73;95727.38;4185645;28;5547;-68
2024/01/06 01:01:43;;;;;;;;;;;;;;;10.90;61.01;95734.50;4185398;28;6432;-67
2024/01/06 01:03:45;;;;;;;;;;;;;;;10.89;60.68;95735.53;4185107;28;5715;-67
2024/01/06 01:05:48;;;;;;;;;;;;;;;10.87;60.79;95737.56;4185338;28;5833;-67
2024/01/06 01:07:52;;;;;;;;;;;;;;;10.88;61.22;95739.19;4184915;28;5751;-67
2024/01/06 01:09:56;;;;;;;;;;;;;;;10.89;61.20;95748.75;4185227;28;6231;-67
2024/01/06 01:11:58;;;;;;;;;;;;;;;10.89;61.11;95756.69;4185055;28;5812;-67
2024/01/06 01:14:01;;;;;;;;;;;;;;;10.90;60.89;95763.59;4177096;28;5655;-68
2024/01/06 01:16:05;;;;;;;;;;;;;;;10.90;60.85;95763.59;4185105;28;5811;-67
2024/01/06 01:18:07;;;;;;;;;;;;;;;10.90;61.31;95757.47;4184747;28;6145;-67
2024/01/06 01:20:11;;;;;;;;;;;;;;;10.89;61.26;95761.97;4184989;28;6414;-67
2024/01/06 01:22:15;;;;;;;;;;;;;;;10.89;61.15;95754.03;4184916;28;5748;-67
2024/01/06 01:24:17;;;;;;;;;;;;;;;10.90;60.89;95760.13;4183995;28;6228;-67
2024/01/06 01:26:22;;;;;;;;;;;;;;;10.92;61.11;95766.81;4185074;28;5752;-67
2024/01/06 01:28:25;;;;;;;;;;;;;;;10.90;61.17;95758.28;4184946;28;5760;-67
2024/01/06 01:30:28;;;;;;;;;;;;;;;10.90;61.12;95768.88;4184764;28;5779;-68
2024/01/06 01:32:31;;;;;;;;;;;;;;;10.89;61.22;95761.97;4184541;28;5558;-68
2024/01/06 01:34:35;;;;;;;;;;;;;;;10.87;61.24;95771.94;4184703;28;5764;-67
2024/01/06 01:36:38;;;;;;;;;;;;;;;10.87;61.14;95787.78;4183939;28;6240;-67
2024/01/06 01:38:41;;;;;;;;;;;;;;;10.86;61.04;95782.72;4184112;28;5767;-67
2024/01/06 01:40:44;;;;;;;;;;;;;;;10.85;61.01;95784.56;4184424;28;5748;-67
2024/01/06 01:42:48;;;;;;;;;;;;;;;10.86;60.98;95786.19;4184619;28;5543;-67
2024/01/06 01:44:51;;;;;;;;;;;;;;;10.86;61.17;95795.94;4184416;28;5559;-67
2024/01/06 01:46:54;;;;;;;;;;;;;;;10.83;61.10;95794.56;4184517;28;5756;-67
2024/01/06 01:48:59;;;;;;;;;;;;;;;10.85;60.84;95802.25;4184435;28;5699;-67
2024/01/06 01:51:03;;;;;;;;;;;;;;;10.83;61.02;95789.28;4176479;28;5714;-67
2024/01/06 01:53:05;;;;;;;;;;;;;;;10.82;61.23;95798.22;4184271;28;5721;-67
2024/01/06 01:55:09;;;;;;;;;;;;;;;10.84;61.25;95796.16;4183700;28;5710;-68
2024/01/06 01:57:14;;;;;;;;;;;;;;;10.85;61.05;95802.25;4167285;28;5962;-67
2024/01/06 01:59:19;;;;;;;;;;;;;;;10.85;61.07;95800.44;4184311;28;5756;-66
2024/01/06 02:01:22;;;;;;;;;;;;;;;10.86;61.07;95794.13;4183891;28;5718;-66
2024/01/06 02:03:26;;;;;;;;;;;;;;;10.85;61.22;95800.44;4184243;28;5806;-66
2024/01/06 02:05:29;;;;;;;;;;;;;;;10.84;61.20;95796.16;4184274;28;5530;-68
2024/01/06 02:07:33;;;;;;;;;;;;;;;10.83;61.02;95805.13;4183925;28;7098;-66
2024/01/06 02:09:36;;;;;;;;;;;;;;;10.85;61.14;95802.25;4182759;28;6545;-66
2024/01/06 02:11:39;;;;;;;;;;;;;;;10.85;61.27;95800.44;4184308;28;5638;-66
2024/01/06 02:13:40;;;;;;;;;;;;;;;10.85;60.93;95807.56;4181374;28;5119;-67
2024/01/06 02:15:45;;;;;;;;;;;;;;;10.85;61.34;95813.66;4183459;28;5663;-67
2024/01/06 02:17:48;;;;;;;;;;;;;;;10.85;61.00;95826.06;4183830;28;5765;-67
2024/01/06 02:19:51;;;;;;;;;;;;;;;10.84;60.99;95822.63;4184096;28;5916;-67
2024/01/06 02:21:55;;;;;;;;;;;;;;;10.85;61.00;95820.78;4183923;28;5767;-67
2024/01/06 02:23:59;;;;;;;;;;;;;;;10.86;61.39;95825.84;4183963;28;5711;-68
2024/01/06 02:26:01;;;;;;;;;;;;;;;10.88;61.16;95823.81;4175911;28;5076;-66
2024/01/06 02:28:05;;;;;;;;;;;;;;;10.90;61.44;95829.69;4183856;28;7762;-67
2024/01/06 02:30:10;;;;;;;;;;;;;;;10.89;61.26;95827.25;4177710;28;5656;-65
2024/01/06 02:32:13;;;;;;;;;;;;;;;10.88;61.35;95821.16;4183983;28;5678;-68
2024/01/06 02:34:16;;;;;;;;;;;;;;;10.87;61.12;95824.81;4183952;28;5659;-67
2024/01/06 02:36:19;;;;;;;;;;;;;;;10.88;61.59;95817.72;4183893;28;5910;-67
2024/01/06 02:38:23;;;;;;;;;;;;;;;10.87;61.32;95822.16;4183232;28;5855;-67
2024/01/06 02:40:26;;;;;;;;;;;;;;;10.85;61.40;95818.94;4183897;28;5801;-66
2024/01/06 02:42:30;;;;;;;;;;;;;;;10.80;61.58;95816.16;4183786;28;5763;-67
2024/01/06 02:44:33;;;;;;;;;;;;;;;10.81;61.32;95824.88;4182950;28;5654;-67
2024/01/06 02:46:36;;;;;;;;;;;;;;;10.81;61.28;95825.69;4175689;28;5558;-67
2024/01/06 02:48:39;;;;;;;;;;;;;;;10.84;61.15;95829.75;4183655;28;5756;-67
2024/01/06 02:50:41;;;;;;;;;;;;;;;10.85;61.40;95837.44;4183771;28;5562;-67
2024/01/06 02:52:45;;;;;;;;;;;;;;;10.78;61.00;95837.53;4181606;28;5802;-67
2024/01/06 02:54:50;;;;;;;;;;;;;;;10.75;60.79;95834.47;4181948;28;5763;-67
2024/01/06 02:56:53;;;;;;;;;;;;;;;10.75;60.87;95837.13;4183782;28;5783;-67
2024/01/06 02:58:56;;;;;;;;;;;;;;;10.74;60.62;95838.16;4183551;28;5866;-67
2024/01/06 03:00:59;;;;;;;;;;;;;;;10.72;60.68;95824.34;4183509;28;5768;-67
2024/01/06 03:03:02;;;;;;;;;;;;;;;10.63;59.03;95837.03;4182253;28;5563;-68
2024/01/06 03:05:06;;;;;;;;;;;;;;;10.52;59.88;95842.22;4183756;28;5655;-67
2024/01/06 03:07:09;;;;;;;;;;;;;;;10.45;59.26;95835.16;4183635;28;5842;-67
2024/01/06 03:09:12;;;;;;;;;;;;;;;10.42;59.33;95830.31;4183084;28;5714;-67
2024/01/06 03:11:17;;;;;;;;;;;;;;;10.41;59.37;95831.31;4183692;28;5835;-67
2024/01/06 03:13:20;;;;;;;;;;;;;;;10.38;59.14;95823.00;4183640;28;5832;-68
2024/01/06 03:15:23;;;;;;;;;;;;;;;10.36;58.50;95822.44;4183625;28;6243;-67
2024/01/06 03:17:28;;;;;;;;;;;;;;;10.28;58.55;95827.97;4182487;28;5695;-67
2024/01/06 03:19:32;;;;;;;;;;;;;;;10.26;58.97;95817.63;4183305;28;6001;-67
2024/01/06 03:21:34;;;;;;;;;;;;;;;10.32;58.98;95823.88;4183277;28;5653;-67
2024/01/06 03:23:37;;;;;;;;;;;;;;;10.36;58.75;95830.34;4183459;28;5554;-67
2024/01/06 03:25:39;;;;;;;;;;;;;;;10.39;58.28;95829.91;4183601;28;5756;-67
2024/01/06 03:27:43;;;;;;;;;;;;;;;10.28;58.19;95838.53;4183710;28;5812;-67
2024/01/06 03:29:46;;;;;;;;;;;;;;;10.23;58.52;95836.53;4183388;28;5714;-67
2024/01/06 03:31:51;;;;;;;;;;;;;;;10.29;58.58;95835.66;4183579;28;5558;-67
2024/01/06 03:33:55;;;;;;;;;;;;;;;10.29;58.22;95840.94;4183595;28;5752;-67
2024/01/06 03:35:58;;;;;;;;;;;;;;;10.37;58.53;95834.59;4183636;28;5768;-67
2024/01/06 03:38:01;;;;;;;;;;;;;;;10.42;58.62;95835.59;4182868;28;5759;-67
2024/01/06 03:40:06;;;;;;;;;;;;;;;10.44;58.42;95846.75;4183613;28;5760;-67
2024/01/06 03:42:09;;;;;;;;;;;;;;;10.39;58.07;95848.41;4183476;28;5767;-67
2024/01/06 03:44:14;;;;;;;;;;;;;;;10.40;58.00;95847.38;4183729;28;5723;-67
2024/01/06 03:46:17;;;;;;;;;;;;;;;10.41;58.14;95847.16;4183496;28;5543;-66
2024/01/06 03:48:20;;;;;;;;;;;;;;;10.40;57.71;95842.91;4183312;28;5771;-67
2024/01/06 03:50:23;;;;;;;;;;;;;;;10.40;58.12;95848.19;4183338;28;5702;-66
2024/01/06 03:52:26;;;;;;;;;;;;;;;10.42;58.08;95846.16;4183261;28;5760;-67
2024/01/06 03:54:29;;;;;;;;;;;;;;;10.44;57.76;95844.13;4179100;28;5807;-67
2024/01/06 03:56:31;;;;;;;;;;;;;;;10.44;57.75;95846.75;4182429;28;6418;-67
2024/01/06 03:58:34;;;;;;;;;;;;;;;10.45;57.86;95856.28;4186388;28;5550;-67
2024/01/06 04:00:39;;;;;;;;;;;;;;;10.48;57.98;95853.22;4186557;28;5658;-68
2024/01/06 04:02:42;;;;;;;;;;;;;;;10.48;57.47;95858.50;4186342;28;6459;-68
2024/01/06 04:04:45;;;;;;;;;;;;;;;10.44;56.58;95857.31;4186249;28;6480;-67
2024/01/06 04:06:48;;;;;;;;;;;;;;;10.42;56.73;95850.66;4186262;28;5763;-68
2024/01/06 04:08:53;;;;;;;;;;;;;;;10.39;56.71;95848.41;4185089;28;5901;-67
2024/01/06 04:10:56;;;;;;;;;;;;;;;10.39;57.25;95854.50;4186105;28;5886;-68
2024/01/06 04:13:19;;;;;;;;;;;;;;;10.41;57.28;95857.72;4180095;28;6446;-67
2024/01/06 04:15:23;;;;;;;;;;;;;;;10.41;57.22;95849.81;4173216;28;5657;-67
2024/01/06 04:17:28;;;;;;;;;;;;;;;10.39;57.01;95846.56;4186068;28;5880;-66
2024/01/06 04:19:30;;;;;;;;;;;;;;;10.41;57.28;95849.00;4185890;28;5775;-66
2024/01/06 04:21:33;;;;;;;;;;;;;;;10.43;57.26;95854.91;4175214;28;5852;-67
2024/01/06 04:23:36;;;;;;;;;;;;;;;10.41;56.98;95855.09;4184946;28;5730;-67
2024/01/06 04:25:39;;;;;;;;;;;;;;;10.43;56.79;95853.06;4180794;28;5703;-67
2024/01/06 04:27:42;;;;;;;;;;;;;;;10.47;56.70;95856.88;4181475;28;5601;-67
2024/01/06 04:29:45;;;;;;;;;;;;;;;10.48;56.03;95855.84;4185146;28;5922;-67
2024/01/06 04:31:48;;;;;;;;;;;;;;;10.45;56.44;95856.28;4185698;28;7746;-67
2024/01/06 04:33:53;;;;;;;;;;;;;;;10.42;56.14;95853.28;4185243;28;5714;-67
2024/01/06 04:35:57;;;;;;;;;;;;;;;10.44;56.26;95859.16;4184839;28;5715;-68
2024/01/06 04:38:00;;;;;;;;;;;;;;;10.46;56.48;95860.56;4179150;28;6333;-67
2024/01/06 04:40:04;;;;;;;;;;;;;;;10.47;56.33;95859.53;4175419;28;5650;-67
2024/01/06 04:42:07;;;;;;;;;;;;;;;10.45;56.50;95863.41;4181251;28;5740;-68
2024/01/06 04:44:10;;;;;;;;;;;;;;;10.48;56.42;95866.44;4185664;28;5751;-67
2024/01/06 04:46:13;;;;;;;;;;;;;;;10.48;56.26;95869.06;4185746;28;6456;-67
2024/01/06 04:48:15;;;;;;;;;;;;;;;10.49;56.12;95873.34;4185518;28;5855;-68
2024/01/06 04:50:19;;;;;;;;;;;;;;;10.49;56.44;95872.53;4184800;28;5759;-68
2024/01/06 04:52:22;;;;;;;;;;;;;;;10.49;56.05;95873.34;4185511;28;5833;-68
2024/01/06 04:54:25;;;;;;;;;;;;;;;10.48;56.05;95874.34;4166909;28;5777;-68
2024/01/06 04:56:28;;;;;;;;;;;;;;;10.46;55.90;95873.75;4185559;28;5710;-67
2024/01/06 04:58:35;;;;;;;;;;;;;;;10.46;55.87;95876.41;4185540;28;5682;-67
2024/01/06 05:00:38;;;;;;;;;;;;;;;10.43;55.90;95873.41;4185377;28;5094;-68
2024/01/06 05:02:41;;;;;;;;;;;;;;;10.46;55.88;95875.59;4185240;28;7721;-68
2024/01/06 05:04:44;;;;;;;;;;;;;;;10.47;55.68;95875.38;4185204;28;5574;-68
2024/01/06 05:06:49;;;;;;;;;;;;;;;10.46;55.95;95883.53;4184421;28;5738;-68
2024/01/06 05:08:51;;;;;;;;;;;;;;;10.46;55.74;95883.53;4184868;28;5554;-68
2024/01/06 05:10:54;;;;;;;;;;;;;;;10.45;55.55;95877.44;4185239;28;5739;-67
2024/01/06 05:12:57;;;;;;;;;;;;;;;10.45;55.72;95882.72;4185778;28;5742;-67
2024/01/06 05:15:00;;;;;;;;;;;;;;;10.48;55.45;95884.94;4176827;28;5547;-68
2024/01/06 05:17:03;;;;;;;;;;;;;;;10.50;55.57;95879.41;4184931;28;5850;-68
2024/01/06 05:19:06;;;;;;;;;;;;;;;10.48;55.18;95884.94;4184832;28;5715;-67
2024/01/06 05:21:10;;;;;;;;;;;;;;;10.49;55.61;95883.91;4184926;28;5748;-67
2024/01/06 05:23:14;;;;;;;;;;;;;;;10.47;55.59;95880.66;4184718;28;5867;-67
2024/01/06 05:25:17;;;;;;;;;;;;;;;10.48;55.04;95887.56;4185057;28;5857;-67
2024/01/06 05:27:20;;;;;;;;;;;;;;;10.48;55.47;95882.28;4184903;28;5558;-67
2024/01/06 05:29:25;;;;;;;;;;;;;;;10.49;55.28;95886.53;4184878;28;5777;-67
2024/01/06 05:31:28;;;;;;;;;;;;;;;10.53;55.23;95886.09;4185061;28;5674;-67
2024/01/06 05:33:31;;;;;;;;;;;;;;;10.52;54.97;95881.84;4185093;28;5539;-67
2024/01/06 05:35:34;;;;;;;;;;;;;;;10.53;55.17;95876.34;4184873;28;5752;-68
2024/01/06 05:37:37;;;;;;;;;;;;;;;10.53;55.38;95880.81;4184980;28;5555;-67
2024/01/06 05:39:43;;;;;;;;;;;;;;;10.53;55.11;95878.19;4184502;28;5834;-68
2024/01/06 05:41:46;;;;;;;;;;;;;;;10.53;55.26;95879.00;4184860;28;5555;-66
2024/01/06 05:43:49;;;;;;;;;;;;;;;10.52;55.14;95882.66;4184585;28;5862;-67
2024/01/06 05:45:51;;;;;;;;;;;;;;;10.52;55.07;95887.13;4184575;28;6097;-66
2024/01/06 05:47:55;;;;;;;;;;;;;;;10.53;55.31;95892.19;4184699;28;5883;-66
2024/01/06 05:49:58;;;;;;;;;;;;;;;10.48;54.81;95898.13;4184747;28;5550;-66
2024/01/06 05:52:00;;;;;;;;;;;;;;;10.45;54.98;95892.47;4176375;28;5935;-68
2024/01/06 05:54:03;;;;;;;;;;;;;;;10.47;55.25;95895.72;4183524;28;5666;-67
2024/01/06 05:56:08;;;;;;;;;;;;;;;10.47;55.29;95891.25;4167536;28;5657;-67
2024/01/06 05:58:12;;;;;;;;;;;;;;;10.50;54.92;95890.00;4184590;28;5707;-67
2024/01/06 06:00:15;;;;;;;;;;;;;;;10.54;55.22;95890.41;4184471;28;5827;-67
2024/01/06 06:02:18;;;;;;;;;;;;;;;10.57;54.99;95892.59;4184236;28;5872;-67
2024/01/06 06:04:21;;;;;;;;;;;;;;;10.58;54.90;95894.22;4184573;28;5752;-67
2024/01/06 06:06:24;;;;;;;;;;;;;;;10.55;54.95;95894.66;4184301;28;5756;-67
2024/01/06 06:08:27;;;;;;;;;;;;;;;10.55;54.93;95902.59;4184030;28;5539;-67
2024/01/06 06:10:40;;;;;;;;;;;;;;;10.54;55.09;95909.69;4184223;28;5756;-68
2024/01/06 06:12:45;;;;;;;;;;;;;;;10.56;55.02;95906.84;4184461;28;5638;-67
2024/01/06 06:14:47;;;;;;;;;;;;;;;10.55;55.01;95906.03;4184165;28;5917;-68
2024/01/06 06:16:50;;;;;;;;;;;;;;;10.54;55.13;95906.25;4184416;28;5752;-67
2024/01/06 06:18:54;;;;;;;;;;;;;;;10.55;55.01;95908.69;4183099;28;5740;-68
2024/01/06 06:20:57;;;;;;;;;;;;;;;10.52;54.86;95903.78;4184279;28;5756;-68
2024/01/06 06:23:00;;;;;;;;;;;;;;;10.51;55.08;95899.53;4175804;28;5743;-66
2024/01/06 06:25:03;;;;;;;;;;;;;;;10.53;55.17;95904.59;4184251;28;5714;-66
2024/01/06 06:27:06;;;;;;;;;;;;;;;10.55;55.03;95910.50;4183190;28;5872;-66
2024/01/06 06:29:10;;;;;;;;;;;;;;;10.53;54.82;95904.59;4176131;28;5817;-67
2024/01/06 06:31:14;;;;;;;;;;;;;;;10.52;54.97;95908.28;4177492;28;6347;-67
2024/01/06 06:33:18;;;;;;;;;;;;;;;10.50;55.05;95917.22;4183344;28;6235;-67
2024/01/06 06:35:21;;;;;;;;;;;;;;;10.49;55.00;95910.31;4175405;28;5813;-68
2024/01/06 06:37:24;;;;;;;;;;;;;;;10.46;55.09;95910.75;4170895;28;5737;-66
2024/01/06 06:39:27;;;;;;;;;;;;;;;10.45;54.88;95908.34;4181760;28;5768;-67
2024/01/06 06:41:30;;;;;;;;;;;;;;;10.46;55.29;95916.03;4172477;28;5710;-67
2024/01/06 06:43:33;;;;;;;;;;;;;;;10.44;55.46;95910.16;4175299;28;5707;-67
2024/01/06 06:45:38;;;;;;;;;;;;;;;10.42;55.09;95903.50;4173945;28;5742;-67
2024/01/06 06:47:40;;;;;;;;;;;;;;;10.41;55.01;95907.94;4176017;28;5653;-67
2024/01/06 06:49:43;;;;;;;;;;;;;;;10.40;55.07;95913.44;4180873;28;5645;-67
2024/01/06 06:51:48;;;;;;;;;;;;;;;10.37;55.29;95911.22;4178178;28;6337;-67
2024/01/06 06:53:51;;;;;;;;;;;;;;;10.36;55.36;95912.25;4177890;28;5729;-67
2024/01/06 06:55:54;;;;;;;;;;;;;;;10.35;55.48;95911.44;4181234;28;5796;-67
2024/01/06 06:57:56;;;;;;;;;;;;;;;10.33;55.69;95916.13;4183257;28;5641;-67
2024/01/06 07:00:00;;;;;;;;;;;;;;;10.34;55.24;95914.31;4182036;28;5642;-67
2024/01/06 07:02:04;;;;;;;;;;;;;;;10.31;55.49;95912.91;4175467;28;5680;-67
2024/01/06 07:04:07;;;;;;;;;;;;;;;10.31;55.27;95920.03;4169320;28;5669;-67
2024/01/06 07:06:13;;;;;;;;;;;;;;;10.22;55.23;95913.38;4180902;28;5802;-67
2024/01/06 07:08:16;;;;;;;;;;;;;;;10.17;54.86;95921.88;4181663;28;5768;-67
2024/01/06 07:10:19;;;;;;;;;;;;;;;10.16;55.15;95914.97;4183606;28;5937;-66
2024/01/06 07:12:22;;;;;;;;;;;;;;;10.18;54.92;95920.84;4183262;28;5747;-67
2024/01/06 07:14:25;;;;;;;;;;;;;;;10.20;55.06;95921.47;4172969;28;5668;-67
2024/01/06 07:16:28;;;;;;;;;;;;;;;10.23;54.86;95921.06;4169613;28;5710;-68
2024/01/06 07:18:33;;;;;;;;;;;;;;;10.26;55.05;95923.28;4178947;28;5737;-67
2024/01/06 07:20:36;;;;;;;;;;;;;;;10.28;55.05;95929.16;4180349;28;5901;-68
2024/01/06 07:22:40;;;;;;;;;;;;;;;10.27;54.77;95930.19;4183078;28;6517;-68
2024/01/06 07:24:44;;;;;;;;;;;;;;;10.28;54.85;95934.44;4176652;28;5702;-68
2024/01/06 07:26:46;;;;;;;;;;;;;;;10.30;55.09;95939.50;4177900;28;5807;-67
2024/01/06 07:28:50;;;;;;;;;;;;;;;10.31;54.88;95936.69;4183222;28;5850;-67
2024/01/06 07:30:54;;;;;;;;;;;;;;;10.30;55.36;95942.94;4176909;28;5677;-67
2024/01/06 07:32:58;;;;;;;;;;;;;;;10.31;55.09;95939.31;4182729;28;5792;-67
2024/01/06 07:35:03;;;;;;;;;;;;;;;10.35;55.33;95940.50;4186077;28;5658;-66
2024/01/06 07:37:10;;;;;;;;;;;;;;;10.35;54.87;95937.88;4170434;28;5743;-67
2024/01/06 07:39:12;;;;;;;;;;;;;;;10.37;54.97;95937.66;4178041;28;5802;-67
2024/01/06 07:41:15;;;;;;;;;;;;;;;10.35;54.95;95944.97;4180545;28;5916;-67
2024/01/06 07:43:18;;;;;;;;;;;;;;;10.31;54.80;95951.72;4186399;28;6952;-67
2024/01/06 07:45:20;;;;;;;;;;;;;;;10.16;54.01;95939.56;4186496;28;5710;-66
2024/01/06 07:47:24;;;;;;;;;;;;;;;10.14;54.46;95943.44;4186487;28;5755;-67
2024/01/06 07:49:27;;;;;;;;;;;;;;;10.17;54.55;95948.28;4186529;28;5824;-67
2024/01/06 07:51:32;;;;;;;;;;;;;;;10.20;54.33;95953.16;4186242;28;5767;-67
2024/01/06 07:53:35;;;;;;;;;;;;;;;10.20;54.48;95951.34;4185228;28;5554;-68
2024/01/06 07:55:38;;;;;;;;;;;;;;;10.23;54.32;95957.25;4183349;28;5717;-67
2024/01/06 07:57:42;;;;;;;;;;;;;;;10.15;53.83;95955.59;4186050;28;5748;-69
2024/01/06 07:59:47;;;;;;;;;;;;;;;10.06;53.76;95956.88;4185985;28;5625;-68
2024/01/06 08:01:50;;;;;;;;;;;;;;;10.04;53.82;95959.72;4186509;28;5723;-67
2024/01/06 08:03:53;;;;;;;;;;;;;;;10.07;53.92;95959.28;4186743;28;5781;-67
2024/01/06 08:05:56;;;;;;;;;;;;;;;10.13;54.13;95968.22;4186823;28;5715;-67
2024/01/06 08:07:59;;;;;;;;;;;;;;;10.14;53.88;95968.00;4185569;28;5895;-67
2024/01/06 08:10:04;;;;;;;;;;;;;;;10.13;53.75;95970.88;4186451;28;5557;-67
2024/01/06 08:12:09;;;;;;;;;;;;;;;10.12;53.64;95967.41;4186207;28;5710;-67
2024/01/06 08:14:12;;;;;;;;;;;;;;;10.10;53.75;95964.19;4186115;28;5779;-67
2024/01/06 08:16:15;;;;;;;;;;;;;;;10.17;53.78;95964.13;4186245;28;5819;-67
2024/01/06 08:18:19;;;;;;;;;;;;;;;10.22;53.19;95969.63;4185913;28;5862;-67
2024/01/06 08:20:22;;;;;;;;;;;;;;;10.17;52.64;95975.50;4186410;28;5558;-67
2024/01/06 08:22:24;;;;;;;;;;;;;;;10.06;52.71;95968.25;4186283;28;5837;-67
2024/01/06 08:24:28;;;;;;;;;;;;;;;10.10;53.20;95960.72;4185807;28;5864;-67
2024/01/06 08:26:32;;;;;;;;;;;;;;;10.16;53.12;95973.06;4186077;28;5846;-67
2024/01/06 08:28:36;;;;;;;;;;;;;;;10.14;52.35;95978.56;4185908;28;5543;-66
2024/01/06 08:30:39;;;;;;;;;;;;;;;10.06;52.69;95984.09;4185813;28;5741;-66
2024/01/06 08:32:42;;;;;;;;;;;;;;;10.06;52.94;95983.28;4185847;28;5557;-67
2024/01/06 08:34:45;;;;;;;;;;;;;;;10.07;52.52;95985.69;4185631;28;5765;-66
2024/01/06 08:36:48;;;;;;;;;;;;;;;10.01;52.24;95986.56;4185781;28;5587;-67
2024/01/06 08:38:51;;;;;;;;;;;;;;;10.02;52.47;95980.25;4185293;28;6231;-70
2024/01/06 08:40:55;;;;;;;;;;;;;;;9.98;52.10;95983.53;4185131;28;5699;-66
2024/01/06 08:42:58;;;;;;;;;;;;;;;9.99;52.14;95990.44;4179339;28;5696;-68
2024/01/06 08:45:01;;;;;;;;;;;;;;;10.05;52.62;95989.56;4177703;28;5714;-68
2024/01/06 08:47:05;;;;;;;;;;;;;;;10.11;52.62;95996.69;4175604;28;5673;-68
2024/01/06 08:49:08;;;;;;;;;;;;;;;10.14;52.79;95989.13;4185658;28;5877;-68
2024/01/06 08:51:11;;;;;;;;;;;;;;;10.15;53.01;95993.41;4180551;28;5649;-68
2024/01/06 08:53:15;;;;;;;;;;;;;;;10.12;53.12;95988.53;4175601;28;5649;-68
2024/01/06 08:55:18;;;;;;;;;;;;;;;10.12;53.03;95985.91;4183856;28;5779;-68
2024/01/06 08:57:21;;;;;;;;;;;;;;;10.12;53.50;95987.72;4182267;28;5786;-68
2024/01/06 08:59:25;;;;;;;;;;;;;;;10.17;53.54;95987.91;4184563;28;5566;-67
2024/01/06 09:01:28;;;;;;;;;;;;;;;10.16;53.20;95986.28;4183312;28;6326;-67
2024/01/06 09:03:31;;;;;;;;;;;;;;;10.11;53.30;95980.84;4185021;28;5714;-68
2024/01/06 09:05:34;;;;;;;;;;;;;;;10.15;53.30;95982.03;4179756;28;5830;-68
2024/01/06 09:07:37;;;;;;;;;;;;;;;10.17;53.20;95985.25;4178023;28;5642;-68
2024/01/06 09:09:40;;;;;;;;;;;;;;;10.19;53.54;95985.84;4177716;28;5411;-68
2024/01/06 09:11:44;;;;;;;;;;;;;;;10.22;53.51;95985.50;4181093;28;6980;-68
2024/01/06 09:13:48;;;;;;;;;;;;;;;10.25;53.20;95992.16;4180774;28;5661;-68
2024/01/06 09:15:52;;;;;;;;;;;;;;;10.20;52.88;95990.94;4178749;28;5637;-67
2024/01/06 09:17:54;;;;;;;;;;;;;;;10.21;53.21;95981.19;4184738;28;5847;-68
2024/01/06 09:19:58;;;;;;;;;;;;;;;10.25;52.89;95987.69;4185136;28;5638;-68
2024/01/06 09:22:01;;;;;;;;;;;;;;;10.28;51.60;95992.56;4176784;28;5096;-69
2024/01/06 09:24:06;;;;;;;;;;;;;;;10.10;51.31;95987.94;4184282;28;5645;-68
2024/01/06 09:26:09;;;;;;;;;;;;;;;10.04;51.69;95988.78;4184997;28;5819;-68
2024/01/06 09:28:12;;;;;;;;;;;;;;;10.09;51.99;95990.81;4183804;28;5638;-68
2024/01/06 09:30:17;;;;;;;;;;;;;;;10.17;52.13;95990.53;4184687;28;6330;-70
2024/01/06 09:32:19;;;;;;;;;;;;;;;10.18;51.74;95989.53;4184072;28;6051;-70
2024/01/06 09:34:22;;;;;;;;;;;;;;;10.17;51.55;96001.09;4183819;28;5760;-72
2024/01/06 09:36:25;;;;;;;;;;;;;;;10.20;51.61;96000.72;4179940;28;5710;-67
2024/01/06 09:38:28;;;;;;;;;;;;;;;10.28;51.50;96005.75;4182723;28;5646;-66
2024/01/06 09:40:33;;;;;;;;;;;;;;;10.31;51.65;95997.44;4184542;28;5641;-65
2024/01/06 09:42:36;;;;;;;;;;;;;;;10.34;51.79;96012.88;4184596;28;5751;-65
2024/01/06 09:44:39;;;;;;;;;;;;;;;10.35;51.32;95998.63;4184109;28;5711;-65
2024/01/06 09:46:43;;;;;;;;;;;;;;;10.32;51.10;96004.34;4184665;28;5755;-71
2024/01/06 09:48:48;;;;;;;;;;;;;;;10.37;51.35;96007.16;4182942;28;5854;-69
2024/01/06 09:50:57;;;;;;;;;;;;;;;10.42;51.32;96002.06;4183147;28;5713;-71
2024/01/06 09:53:05;;;;;;;;;;;;;;;10.48;51.38;96003.84;4183934;28;5839;-71
2024/01/06 09:55:11;;;;;;;;;;;;;;;10.52;51.39;96011.34;4180345;28;5850;-71
2024/01/06 09:57:15;;;;;;;;;;;;;;;10.57;50.63;96014.97;4184236;28;6525;-71
2024/01/06 09:59:20;;;;;;;;;;;;;;;10.52;50.41;96013.97;4177223;28;5648;-71
2024/01/06 10:01:23;;;;;;;;;;;;;;;10.53;50.89;96018.25;4182734;28;5731;-71
2024/01/06 10:03:27;;;;;;;;;;;;;;;10.54;50.74;96018.06;4183812;28;6896;-71
2024/01/06 10:05:30;;;;;;;;;;;;;;;10.56;50.52;96020.47;4180158;28;5776;-78
2024/01/06 10:07:34;;;;;;;;;;;;;;;10.63;50.93;96022.03;4182263;28;5792;-77
2024/01/06 10:09:37;;;;;;;;;;;;;;;10.63;50.35;96026.53;4182741;28;5718;-80
2024/01/06 10:11:41;;;;;;;;;;;;;;;10.68;50.65;96018.78;4184266;28;5539;-79
2024/01/06 10:13:44;;;;;;;;;;;;;;;10.71;50.66;96018.34;4183697;28;5776;-83
2024/01/06 10:15:47;;;;;;;;;;;;;;;10.74;50.18;96018.72;4183301;28;5642;-78
2024/01/06 10:17:50;;;;;;;;;;;;;;;10.74;50.41;96015.28;4183924;28;5728;-78
2024/01/06 10:19:56;;;;;;;;;;;;;;;10.75;50.42;96020.34;4180574;28;5692;-79
2024/01/06 10:22:02;;;;;;;;;;;;;;;10.78;50.19;96019.13;4183808;28;5862;-79
2024/01/06 10:24:09;;;;;;;;;;;;;;;10.83;50.43;96021.94;4183584;28;5850;-79
2024/01/06 10:26:14;;;;;;;;;;;;;;;10.80;50.04;96022.38;4183533;28;5733;-80
2024/01/06 10:28:16;;;;;;;;;;;;;;;10.80;50.12;96022.38;4183054;28;5851;-80
2024/01/06 10:30:19;;;;;;;;;;;;;;;10.77;50.10;96026.25;4186628;28;5773;-80
2024/01/06 10:32:28;;;;;;;;;;;;;;;10.80;50.23;96022.38;4183194;28;5106;-80
2024/01/06 10:34:32;;;;;;;;;;;;;;;10.85;50.00;96017.25;4180134;28;5763;-81
2024/01/06 10:36:37;;;;;;;;;;;;;;;10.88;50.07;96011.56;4183840;28;5809;-80
2024/01/06 10:38:41;;;;;;;;;;;;;;;10.89;50.08;96015.00;4182056;28;5852;-79
2024/01/06 10:40:56;;;;;;;;;;;;;;;10.83;49.59;96014.00;4165471;28;5728;-81
2024/01/06 10:43:01;;;;;;;;;;;;;;;10.80;49.73;96011.78;4183985;28;5739;-80
2024/01/06 10:45:07;;;;;;;;;;;;;;;10.83;49.98;96011.38;4176025;28;5736;-80
2024/01/06 10:47:12;;;;;;;;;;;;;;;10.87;50.02;96015.19;4184036;28;5550;-80
2024/01/06 10:49:16;;;;;;;;;;;;;;;10.91;49.87;96008.47;4166068;28;5768;-80
2024/01/06 10:51:21;;;;;;;;;;;;;;;10.94;50.08;96008.03;4183525;28;5809;-79
2024/01/06 10:53:28;;;;;;;;;;;;;;;10.97;49.94;96010.25;4183839;28;5695;-80